Barnetts Creek, Kentucky
Current Conditions -  °F | °C
As of 4:35 AM on Friday 31 Oct 2014 (Local Time) from KSJS Reporting Station
Overcast Overcast  
Wind Chill: 38°   Ceiling: 12000
Heat Index: 38°   Visibility: 10mi
Dew Point: 36°   Wind: 3mph
Humidity: 91%   Direction: 240°WSW
Pressure: 30"   Gusts: NA
Location:  37.8382°N, 82.8599°W
Report Text: KSJS 310835Z AUTO 24003KT 10SM OVC120 03/02 A3000 RMK AO2 T00330020
Loading
Personal Weather Stations






























Interactive Weather Map
Tropical Storm Tracking
New forecast layout! Learn more

10-Day Weather Forecast

Advertisements
Track Severe Weather on mobile